Flight Track Log - Related Links

Times and Time Zones

All times are in EDT time to prevent confusion due to time zone crossing. See the UAL270 flight status page for this flight to view local times or setup timezone preferences in your user account.


Time Position Orientation Groundspeed Altitude Reporting Facility
EDT Latitude Longitude Course Direction KTS MPH feet Rate Location/Type
Wed 07:40:48 AM 39.1833 -76.7167 211° Southwest 167 192 1,500  Level Potomac TRACON
Wed 07:41:48 AM 39.1833 -76.7833 270° West 220 253 3,400 2,400 Climbing Potomac TRACON
Wed 07:42:48 AM 39.2000 -76.8667 284° West 267 307 6,300 2,674 Climbing Potomac TRACON
Wed 07:43:00 AM 39.2000 -77.1047 270° West  Level FlightAware Approximate
Wed 07:44:00 AM 39.1325 -77.2063 211° Southwest  Level FlightAware Approximate
Wed 07:44:52 AM 39.2128 -77.0731 275° West 288 331 11,600  Level Washington Center
Wed 07:45:00 AM 39.0334 -77.2833 211° Southwest  Level FlightAware Approximate
Wed 07:45:53 AM 39.1844 -77.1794 251° West 304 350 13,700  Level Washington Center
Wed 07:46:50 AM 39.1000 -77.2578 216° Southwest 311 358 16,300 2,186 Climbing Washington Center
Wed 07:47:51 AM 39.0133 -77.3308 213° Southwest 342 394 18,000 1,835 Climbing Washington Center
Wed 07:48:51 AM 38.9803 -77.4581 252° West 355 409 20,000 1,934 Climbing Washington Center
Wed 07:49:52 AM 38.9572 -77.5936 258° West 378 435 21,900 1,736 Climbing Washington Center
Wed 07:50:52 AM 38.9447 -77.7214 263° West 399 459 23,500 1,537 Climbing Washington Center
Wed 07:51:53 AM 38.9486 -77.8497 272° West 399 459 25,000 1,513 Climbing Washington Center
Wed 07:52:51 AM 38.9536 -78.0153 272° West 411 473 26,500 1,424 Climbing Washington Center
Wed 07:53:51 AM 38.9589 -78.1650 273° West 421 484 27,800 1,400 Climbing Washington Center
Wed 07:54:51 AM 38.9639 -78.3175 272° West 421 484 29,300 1,415 Climbing Washington Center
Wed 07:55:54 AM 38.9667 -78.4697 271° West 421 484 30,700 1,240 Climbing Washington Center
Wed 07:56:52 AM 38.9711 -78.6219 272° West 426 490 31,800 1,424 Climbing Washington Center
Wed 07:57:52 AM 38.9775 -78.7744 273° West 426 490 33,500 1,563 Climbing Washington Center
Wed 07:58:51 AM 38.9861 -78.9192 274° West 421 484 34,900 1,261 Climbing Washington Center
Wed 07:59:51 AM 38.9967 -79.0664 275° West 421 484 36,000 1,000 Climbing Washington Center
Wed 08:00:51 AM 39.0092 -79.2114 276° West 421 484 36,900 738 Climbing Washington Center
Wed 08:01:53 AM 39.0172 -79.3533 274° West 421 484 37,500 541 Climbing Washington Center
Wed 08:02:53 AM 39.0272 -79.4956 275° West 416 479 38,000 254 Climbing Washington Center
Wed 08:03:51 AM 39.0425 -79.6619 277° West 416 479 38,000  Level Washington Center
Wed 08:04:52 AM 39.0489 -79.7853 274° West 409 471 38,000  Level Washington Center
Wed 08:05:51 AM 39.0581 -79.9414 274° West 410 472 38,000  Level Indianapolis Center
Wed 08:06:52 AM 39.0681 -80.0950 275° West 415 478 38,000  Level Indianapolis Center
Wed 08:07:53 AM 39.0778 -80.2425 275° West 415 478 38,000  Level Indianapolis Center
Wed 08:08:55 AM 39.0864 -80.3900 274° West 415 478 38,000  Level Indianapolis Center
Wed 08:09:56 AM 39.0958 -80.5375 275° West 415 478 38,000  Level Indianapolis Center
Wed 08:10:58 AM 39.1061 -80.6856 275° West 417 480 38,000  Level Indianapolis Center
Wed 08:11:59 AM 39.1239 -80.8336 279° West 419 482 38,000  Level Indianapolis Center
Wed 08:13:00 AM 39.1425 -80.9811 279° West 419 482 38,000  Level Indianapolis Center
Wed 08:14:02 AM 39.1633 -81.1581 279° West 420 483 38,000  Level Indianapolis Center
Wed 08:15:03 AM 39.1811 -81.3050 279° West 418 481 38,000  Level Indianapolis Center
Wed 08:16:05 AM 39.1969 -81.4519 278° West 417 480 38,000  Level Indianapolis Center
Wed 08:17:06 AM 39.2144 -81.5964 279° West 411 473 38,000  Level Indianapolis Center
Wed 08:18:08 AM 39.2311 -81.7436 278° West 417 480 38,000  Level Indianapolis Center
Wed 08:19:09 AM 39.2475 -81.8900 278° West 415 478 38,000  Level Indianapolis Center
Wed 08:20:11 AM 39.2628 -82.0378 278° West 416 479 38,000  Level Indianapolis Center
Wed 08:21:12 AM 39.2811 -82.2147 278° West 418 481 38,000  Level Indianapolis Center
Wed 08:22:14 AM 39.2975 -82.3611 278° West 413 475 38,000  Level Indianapolis Center
Wed 08:23:15 AM 39.3108 -82.4956 277° West 416 479 38,000  Level Indianapolis Center
Wed 08:24:17 AM 39.3294 -82.6678 278° West 412 474 38,000  Level Indianapolis Center
Wed 08:25:19 AM 39.3444 -82.8161 277° West 414 476 38,000  Level Indianapolis Center
Wed 08:26:20 AM 39.3586 -82.9642 277° West 413 475 38,000  Level Indianapolis Center
Wed 08:27:22 AM 39.3742 -83.1122 278° West 412 474 38,000  Level Indianapolis Center
Wed 08:28:23 AM 39.3872 -83.2617 276° West 414 476 38,000  Level Indianapolis Center
Wed 08:29:25 AM 39.4028 -83.4100 278° West 411 473 38,000  Level Indianapolis Center
Wed 08:30:27 AM 39.4167 -83.5594 277° West 413 475 38,000  Level Indianapolis Center
Wed 08:31:28 AM 39.4314 -83.7111 277° West 418 481 38,000  Level Indianapolis Center
Wed 08:32:30 AM 39.4464 -83.8642 277° West 422 486 38,000  Level Indianapolis Center
Wed 08:33:31 AM 39.4606 -84.0175 277° West 424 488 38,000  Level Indianapolis Center
Wed 08:34:33 AM 39.4747 -84.1719 277° West 429 494 38,000  Level Indianapolis Center
Wed 08:35:35 AM 39.4881 -84.3267 276° West 430 495 38,000  Level Indianapolis Center
Wed 08:36:37 AM 39.5039 -84.5086 276° West 433 498 38,000  Level Indianapolis Center
Wed 08:37:38 AM 39.5181 -84.6647 277° West 434 499 38,000  Level Indianapolis Center
Wed 08:38:40 AM 39.5322 -84.8222 277° West 436 502 38,000  Level Indianapolis Center
Wed 08:39:42 AM 39.5442 -84.9647 276° West 436 502 38,000  Level Indianapolis Center
Wed 08:40:43 AM 39.5561 -85.1203 276° West 437 503 38,000  Level Indianapolis Center
Wed 08:41:45 AM 39.5722 -85.3089 276° West 439 505 38,000  Level Indianapolis Center
Wed 08:42:47 AM 39.5842 -85.4661 276° West 441 507 38,000  Level Indianapolis Center
Wed 08:43:48 AM 39.5967 -85.6253 276° West 444 511 38,000  Level Indianapolis Center
Wed 08:44:50 AM 39.6097 -85.7856 276° West 448 516 38,000  Level Indianapolis Center
Wed 08:45:52 AM 39.6217 -85.9458 276° West 448 516 38,000  Level Indianapolis Center
Wed 08:46:54 AM 39.6328 -86.1075 275° West 450 518 38,000  Level Indianapolis Center
Wed 08:47:55 AM 39.6458 -86.2856 275° West 453 521 38,000  Level Indianapolis Center
Wed 08:48:57 AM 39.6567 -86.4414 275° West 453 521 38,000  Level Indianapolis Center
Wed 08:49:59 AM 39.6686 -86.6031 276° West 449 517 38,000  Level Indianapolis Center
Wed 08:51:01 AM 39.6803 -86.7653 275° West 451 519 38,000 49 Level Indianapolis Center
Wed 08:52:02 AM 39.6931 -86.9603 275° West 452 520 38,100  Climbing Indianapolis Center
Wed 08:53:04 AM 39.7033 -87.1214 275° West 451 519 38,000 -48 Descending Indianapolis Center
Wed 08:54:06 AM 39.7139 -87.2825 275° West 449 517 38,000  Level Indianapolis Center
Wed 08:55:08 AM 39.7233 -87.4428 274° West 448 516 38,000  Level Indianapolis Center
Wed 08:56:09 AM 39.7342 -87.6044 275° West 450 518 38,000  Level Indianapolis Center
Wed 08:57:11 AM 39.7433 -87.7650 274° West 449 517 38,000  Level Indianapolis Center
Wed 08:58:13 AM 39.7533 -87.9581 274° West 449 517 38,000  Level Indianapolis Center
Wed 08:59:15 AM 39.7633 -88.1189 275° West 448 516 38,000  Level Indianapolis Center
Wed 09:00:17 AM 39.7725 -88.2772 274° West 445 512 38,000  Level Indianapolis Center
Wed 09:01:19 AM 39.7800 -88.4350 274° West 440 506 38,000  Level Indianapolis Center
Wed 09:02:20 AM 39.7872 -88.5944 273° West 442 509 38,000  Level Indianapolis Center
Wed 09:03:22 AM 39.7964 -88.7517 274° West 440 506 38,000  Level Indianapolis Center
Wed 09:04:24 AM 39.8067 -88.9403 274° West 437 503 38,000  Level Indianapolis Center
Wed 09:05:26 AM 39.8133 -89.0972 273° West 437 503 38,000  Level Indianapolis Center
Wed 09:06:28 AM 39.8208 -89.2544 274° West 437 503 38,000  Level Indianapolis Center
Wed 09:07:30 AM 39.8281 -89.4119 273° West 439 505 38,000  Level Indianapolis Center
Wed 09:08:32 AM 39.8356 -89.5686 274° West 437 503 38,000  Level Indianapolis Center
Wed 09:09:40 AM 39.8383 -89.7514 271° West 439 505 38,000  Level Kansas City Center
Wed 09:10:41 AM 39.8319 -89.9136 267° West 444 511 38,000  Level Kansas City Center
Wed 09:11:41 AM 39.8275 -90.0778 268° West 449 517 38,000  Level Kansas City Center
Wed 09:12:45 AM 39.8217 -90.2411 267° West 451 519 38,000  Level Kansas City Center
Wed 09:13:46 AM 39.8161 -90.4047 268° West 451 519 38,000  Level Kansas City Center
Wed 09:14:47 AM 39.8108 -90.5678 268° West 451 519 38,000  Level Kansas City Center
Wed 09:15:48 AM 39.8031 -90.7614 267° West 449 517 38,000  Level Kansas City Center
Wed 09:16:49 AM 39.7975 -90.9236 267° West 447 514 38,000  Level Kansas City Center
Wed 09:17:53 AM 39.7889 -91.0906 266° West 448 516 38,000  Level Kansas City Center
Wed 09:18:54 AM 39.7831 -91.2511 267° West 448 516 38,000  Level Kansas City Center
Wed 09:19:55 AM 39.7772 -91.4100 267° West 445 512 38,000  Level Kansas City Center
Wed 09:20:58 AM 39.7703 -91.5697 267° West 445 512 38,000  Level Kansas City Center
Wed 09:21:58 AM 39.7614 -91.7297 266° West 445 512 38,000  Level Kansas City Center
Wed 09:23:02 AM 39.7556 -91.8875 267° West 443 510 38,000  Level Kansas City Center
Wed 09:24:03 AM 39.7456 -92.0833 266° West 449 517 38,000  Level Kansas City Center
Wed 09:25:04 AM 39.7367 -92.2439 266° West 449 517 38,000  Level Kansas City Center
Wed 09:26:08 AM 39.7283 -92.4064 266° West 450 518 38,000  Level Kansas City Center
Wed 09:27:08 AM 39.7197 -92.5672 266° West 449 517 38,000  Level Kansas City Center
Wed 09:28:09 AM 39.7106 -92.7314 266° West 453 521 38,000  Level Kansas City Center
Wed 09:29:12 AM 39.7014 -92.8931 266° West 450 518 38,000  Level Kansas City Center
Wed 09:30:13 AM 39.6925 -93.0539 266° West 450 518 38,000  Level Kansas City Center
Wed 09:31:17 AM 39.6825 -93.2486 266° West 453 521 38,000  Level Kansas City Center
Wed 09:32:18 AM 39.6703 -93.4122 265° West 455 524 38,000  Level Kansas City Center
Wed 09:33:18 AM 39.6606 -93.5731 266° West 453 521 38,000  Level Kansas City Center
Wed 09:34:22 AM 39.6506 -93.7417 266° West 453 521 38,000  Level Kansas City Center
Wed 09:35:24 AM 39.6389 -93.9225 265° West 452 520 38,000  Level Kansas City Center
Wed 09:36:25 AM 39.6289 -94.0778 265° West 453 521 38,000  Level Kansas City Center
Wed 09:37:28 AM 39.6172 -94.2581 265° West 450 518 38,000  Level Kansas City Center
Wed 09:38:29 AM 39.6064 -94.4128 265° West 451 519 38,000  Level Kansas City Center
Wed 09:39:30 AM 39.5964 -94.5678 265° West 451 519 38,000  Level Kansas City Center
Wed 09:40:34 AM 39.5831 -94.7475 265° West 450 518 38,000  Level Kansas City Center
Wed 09:41:35 AM 39.5719 -94.8992 265° West 446 513 38,000  Level Kansas City Center
Wed 09:42:38 AM 39.5592 -95.0742 265° West 440 506 38,000  Level Kansas City Center
Wed 09:43:39 AM 39.5475 -95.2231 264° West 438 504 38,000  Level Kansas City Center
Wed 09:44:40 AM 39.5339 -95.4050 265° West 445 512 38,000  Level Kansas City Center
Wed 09:45:44 AM 39.5189 -95.5769 264° West 445 512 38,000  Level Kansas City Center
Wed 09:46:45 AM 39.5069 -95.7297 264° West 447 514 38,000  Level Kansas City Center
Wed 09:47:49 AM 39.4925 -95.9061 264° West 444 511 38,000  Level Kansas City Center
Wed 09:48:50 AM 39.4797 -96.0561 264° West 440 506 38,000  Level Kansas City Center
Wed 09:49:51 AM 39.4664 -96.1981 263° West 440 506 38,000  Level Kansas City Center
Wed 09:50:54 AM 39.4503 -96.3867 264° West 440 506 38,000  Level Kansas City Center
Wed 09:51:55 AM 39.4367 -96.5325 263° West 441 507 38,000  Level Kansas City Center
Wed 09:52:57 AM 39.4208 -96.7081 263° West 441 507 38,000  Level Kansas City Center
Wed 09:53:59 AM 39.4072 -96.8608 263° West 445 512 38,000  Level Kansas City Center
Wed 09:55:03 AM 39.3906 -97.0400 263° West 449 517 38,000  Level Kansas City Center
Wed 09:56:03 AM 39.3772 -97.1919 264° West 447 514 38,000  Level Kansas City Center
Wed 09:57:07 AM 39.3608 -97.3681 263° West 443 510 38,000  Level Kansas City Center
Wed 09:58:08 AM 39.3447 -97.5383 263° West 443 510 38,000  Level Kansas City Center
Wed 09:59:09 AM 39.3289 -97.6972 263° West 444 511 38,000  Level Kansas City Center
Wed 10:00:13 AM 39.3136 -97.8542 263° West 440 506 38,000  Level Kansas City Center
Wed 10:01:14 AM 39.2972 -98.0164 263° West 432 497 38,000  Level Kansas City Center
Wed 10:02:15 AM 39.2833 -98.1647 263° West 434 499 38,000  Level Kansas City Center
Wed 10:03:18 AM 39.2661 -98.3222 262° West 445 512 38,000  Level Kansas City Center
Wed 10:04:19 AM 39.2489 -98.4767 262° West 436 502 38,000  Level Kansas City Center
Wed 10:05:22 AM 39.2347 -98.6361 264° West 432 497 38,000  Level Kansas City Center
Wed 10:06:23 AM 39.2153 -98.8100 262° West 436 502 38,000  Level Kansas City Center
Wed 10:07:27 AM 39.1972 -98.9553 261° West 448 516 38,000  Level Kansas City Center
Wed 10:08:28 AM 39.1767 -99.1425 262° West 442 509 38,000  Level Kansas City Center
Wed 10:09:16 AM 39.1644 -99.2511 262° West 441 507 38,000  Level Denver Center
Wed 10:10:29 AM 39.1469 -99.4114 262° West 437 503 38,000 -131 Level Denver Center
Wed 10:11:33 AM 39.1236 -99.6219 262° West 436 502 37,700 -563 Descending Kansas City Center
Wed 10:12:37 AM 39.1064 -99.7700 262° West 437 503 36,800 -952 Descending Kansas City Center
Wed 10:13:39 AM 39.0856 -99.9439 261° West 439 505 35,700 -976 Descending Kansas City Center
Wed 10:14:40 AM 39.0686 -100.0917 262° West 439 505 34,800 -823 Descending Kansas City Center
Wed 10:15:43 AM 39.0475 -100.2642 261° West 439 505 34,000 -387 Descending Kansas City Center
Wed 10:16:44 AM 39.0297 -100.4122 261° West 439 505 34,000  Level Kansas City Center
Wed 10:17:47 AM 39.0075 -100.5839 261° West 438 504 34,000  Level Kansas City Center
Wed 10:18:48 AM 38.9892 -100.7311 261° West 438 504 34,000  Level Kansas City Center
Wed 10:19:51 AM 38.9675 -100.9033 261° West 439 505 34,000  Level Kansas City Center
Wed 10:21:12 AM 38.9428 -101.0956 261° West 435 501 34,000  Level Denver Center
Wed 10:22:14 AM 38.9211 -101.2597 260° West 435 501 34,000  Level Denver Center
Wed 10:23:16 AM 38.9011 -101.4119 260° West 435 501 34,000  Level Denver Center
Wed 10:24:18 AM 38.8781 -101.5817 260° West 434 499 34,000  Level Denver Center
Wed 10:25:20 AM 38.8594 -101.7272 261° West 434 499 34,000  Level Denver Center
Wed 10:26:22 AM 38.8486 -101.8986 265° West 431 496 34,000  Level Denver Center
Wed 10:27:24 AM 38.8461 -102.0461 269° West 433 498 34,000  Level Denver Center
Wed 10:28:26 AM 38.8461 -102.2178 270° West 432 497 34,000  Level Denver Center
Wed 10:29:28 AM 38.8844 -102.3556 290° West 431 496 34,000  Level Denver Center
Wed 10:30:30 AM 38.9364 -102.5117 293° West 425 489 34,000  Level Denver Center
Wed 10:31:32 AM 38.9731 -102.6242 293° West 427 491 34,000 -194 Level Denver Center
Wed 10:32:34 AM 39.0328 -102.8044 293° West 429 494 33,600 -1,065 Descending Denver Center
Wed 10:33:36 AM 39.0714 -102.9250 292° West 450 518 31,800 -2,226 Descending Denver Center
Wed 10:34:38 AM 39.1281 -103.1006 293° West 445 512 29,000 -2,419 Descending Denver Center
Wed 10:35:40 AM 39.1756 -103.2458 293° West 441 507 26,800 -2,129 Descending Denver Center
Wed 10:36:42 AM 39.2208 -103.3861 293° West 427 491 24,600 -2,129 Descending Denver Center
Wed 10:37:44 AM 39.2647 -103.5231 293° West 418 481 22,400 -2,323 Descending Denver Center
Wed 10:38:46 AM 39.3164 -103.6833 293° West 405 466 19,800 -2,208 Descending Denver Center
Wed 10:39:49 AM 39.3564 -103.8111 292° West 393 452 17,800 -1,235 Descending Denver Center
Wed 10:41:02 AM 39.3942 -103.9311 292° West 367 422 17,000 -1,059 Descending Denver Center
Wed 10:42:05 AM 39.4019 -104.0728 274° West 323 372 15,400 -1,488 Descending Denver Center
Wed 10:43:07 AM 39.4081 -104.1936 274° West 313 360 13,900 -1,258 Descending Denver Center
Wed 10:44:09 AM 39.4261 -104.2992 283° West 304 350 12,800 -871 Descending Denver Center
Wed 10:45:11 AM 39.4681 -104.3933 300° West 281 323 12,100 -871 Descending Denver Center
Wed 10:46:13 AM 39.5044 -104.4736 300° West 262 302 11,000 -968 Descending Denver Center
Wed 10:47:15 AM 39.5458 -104.5247 316° Northwest 244 281 10,100 -1,403 Descending Denver Center
Wed 10:48:17 AM 39.6189 -104.5733 333° Northwest 237 273 8,100 -1,500 Descending Denver Center
Wed 10:49:19 AM 39.6753 -104.6142 331° Northwest 236 272 7,000 -485 Descending Denver Center
Wed 10:50:33 AM 39.7361 -104.6428 340° North 217 250 7,000 -350 Level Denver Center
Wed 10:51:36 AM 39.7886 -104.6425 360° North 153 176 6,200 -768 Descending Denver Center
Wed 10:52:38 AM 39.8289 -104.6417 North 147 169 5,400 -774 Descending Denver Center

Login

Don't have an account? Register now (free) for customized features, flight alerts, and more!